sensor_id;sensor_type;location;lat;lon;timestamp;P1;durP1;ratioP1;P2;durP2;ratioP2
17451;SDS011;8843;48.838;9.324;2022-08-01T00:02:16;2.40;;;2.20;;
17451;SDS011;8843;48.838;9.324;2022-08-01T00:04:43;2.27;;;1.90;;
17451;SDS011;8843;48.838;9.324;2022-08-01T00:07:10;3.37;;;2.27;;
17451;SDS011;8843;48.838;9.324;2022-08-01T00:09:39;2.10;;;2.00;;
17451;SDS011;8843;48.838;9.324;2022-08-01T00:12:05;3.10;;;2.20;;
17451;SDS011;8843;48.838;9.324;2022-08-01T00:14:32;2.30;;;2.10;;
17451;SDS011;8843;48.838;9.324;2022-08-01T00:16:59;5.97;;;2.23;;
17451;SDS011;8843;48.838;9.324;2022-08-01T00:19:26;2.37;;;2.20;;
17451;SDS011;8843;48.838;9.324;2022-08-01T00:21:53;3.37;;;2.30;;
17451;SDS011;8843;48.838;9.324;2022-08-01T00:24:20;3.63;;;2.40;;
17451;SDS011;8843;48.838;9.324;2022-08-01T00:26:48;2.80;;;2.07;;
17451;SDS011;8843;48.838;9.324;2022-08-01T00:29:15;3.17;;;2.10;;
17451;SDS011;8843;48.838;9.324;2022-08-01T00:31:42;2.30;;;2.10;;
17451;SDS011;8843;48.838;9.324;2022-08-01T00:34:09;2.53;;;2.33;;
17451;SDS011;8843;48.838;9.324;2022-08-01T00:36:36;3.17;;;2.27;;
17451;SDS011;8843;48.838;9.324;2022-08-01T00:39:03;3.47;;;2.00;;
17451;SDS011;8843;48.838;9.324;2022-08-01T00:41:30;2.30;;;2.10;;
17451;SDS011;8843;48.838;9.324;2022-08-01T00:44:01;2.40;;;2.07;;
17451;SDS011;8843;48.838;9.324;2022-08-01T00:46:29;2.53;;;2.10;;
17451;SDS011;8843;48.838;9.324;2022-08-01T00:48:56;4.67;;;2.20;;
17451;SDS011;8843;48.838;9.324;2022-08-01T00:51:24;2.20;;;2.10;;
17451;SDS011;8843;48.838;9.324;2022-08-01T00:53:51;4.60;;;2.57;;
17451;SDS011;8843;48.838;9.324;2022-08-01T00:56:19;2.43;;;2.23;;
17451;SDS011;8843;48.838;9.324;2022-08-01T00:58:47;3.50;;;2.30;;
17451;SDS011;8843;48.838;9.324;2022-08-01T01:01:15;3.63;;;2.50;;
17451;SDS011;8843;48.838;9.324;2022-08-01T01:03:42;2.67;;;2.47;;
17451;SDS011;8843;48.838;9.324;2022-08-01T01:08:54;2.23;;;2.03;;
17451;SDS011;8843;48.838;9.324;2022-08-01T01:11:29;3.33;;;2.50;;
17451;SDS011;8843;48.838;9.324;2022-08-01T01:14:04;2.30;;;2.10;;
17451;SDS011;8843;48.838;9.324;2022-08-01T01:16:37;2.37;;;2.17;;
17451;SDS011;8843;48.838;9.324;2022-08-01T01:19:09;2.63;;;2.30;;
17451;SDS011;8843;48.838;9.324;2022-08-01T01:21:56;2.40;;;2.20;;
17451;SDS011;8843;48.838;9.324;2022-08-01T01:24:45;3.40;;;2.17;;
17451;SDS011;8843;48.838;9.324;2022-08-01T01:27:22;3.97;;;2.50;;
17451;SDS011;8843;48.838;9.324;2022-08-01T01:30:01;2.90;;;2.57;;
17451;SDS011;8843;48.838;9.324;2022-08-01T01:32:30;2.40;;;2.20;;
17451;SDS011;8843;48.838;9.324;2022-08-01T01:34:59;2.60;;;2.30;;
17451;SDS011;8843;48.838;9.324;2022-08-01T01:37:30;2.70;;;2.50;;
17451;SDS011;8843;48.838;9.324;2022-08-01T01:39:59;3.63;;;2.30;;
17451;SDS011;8843;48.838;9.324;2022-08-01T01:42:27;2.43;;;2.23;;
17451;SDS011;8843;48.838;9.324;2022-08-01T01:44:56;4.73;;;2.40;;
17451;SDS011;8843;48.838;9.324;2022-08-01T01:47:25;3.23;;;2.47;;
17451;SDS011;8843;48.838;9.324;2022-08-01T01:49:54;2.47;;;2.27;;
17451;SDS011;8843;48.838;9.324;2022-08-01T01:52:22;2.93;;;2.73;;
17451;SDS011;8843;48.838;9.324;2022-08-01T01:54:50;3.27;;;2.57;;
17451;SDS011;8843;48.838;9.324;2022-08-01T01:57:18;3.03;;;2.40;;
17451;SDS011;8843;48.838;9.324;2022-08-01T01:59:47;2.43;;;2.20;;
17451;SDS011;8843;48.838;9.324;2022-08-01T02:02:17;2.27;;;2.13;;
17451;SDS011;8843;48.838;9.324;2022-08-01T02:04:46;2.73;;;2.53;;
17451;SDS011;8843;48.838;9.324;2022-08-01T02:07:14;2.23;;;2.03;;
17451;SDS011;8843;48.838;9.324;2022-08-01T02:09:45;3.07;;;2.23;;
17451;SDS011;8843;48.838;9.324;2022-08-01T02:12:13;2.37;;;2.17;;
17451;SDS011;8843;48.838;9.324;2022-08-01T02:14:42;2.40;;;2.20;;
17451;SDS011;8843;48.838;9.324;2022-08-01T02:17:11;2.33;;;2.13;;
17451;SDS011;8843;48.838;9.324;2022-08-01T02:19:41;2.30;;;2.10;;
17451;SDS011;8843;48.838;9.324;2022-08-01T02:22:10;3.30;;;2.43;;
17451;SDS011;8843;48.838;9.324;2022-08-01T02:24:42;4.07;;;2.40;;
17451;SDS011;8843;48.838;9.324;2022-08-01T02:27:15;2.90;;;2.40;;
17451;SDS011;8843;48.838;9.324;2022-08-01T02:29:47;2.60;;;2.23;;
17451;SDS011;8843;48.838;9.324;2022-08-01T02:32:20;2.67;;;2.43;;
17451;SDS011;8843;48.838;9.324;2022-08-01T02:34:51;2.20;;;2.00;;
17451;SDS011;8843;48.838;9.324;2022-08-01T02:37:23;2.60;;;2.40;;
17451;SDS011;8843;48.838;9.324;2022-08-01T02:39:54;2.70;;;2.30;;
17451;SDS011;8843;48.838;9.324;2022-08-01T02:42:23;2.67;;;2.20;;
17451;SDS011;8843;48.838;9.324;2022-08-01T02:44:52;3.03;;;2.70;;
17451;SDS011;8843;48.838;9.324;2022-08-01T02:47:20;4.87;;;3.13;;
17451;SDS011;8843;48.838;9.324;2022-08-01T02:49:49;6.10;;;3.57;;
17451;SDS011;8843;48.838;9.324;2022-08-01T02:52:19;7.83;;;4.00;;
17451;SDS011;8843;48.838;9.324;2022-08-01T02:54:49;5.70;;;3.50;;
17451;SDS011;8843;48.838;9.324;2022-08-01T02:57:19;5.60;;;3.60;;
17451;SDS011;8843;48.838;9.324;2022-08-01T02:59:47;7.27;;;4.30;;
17451;SDS011;8843;48.838;9.324;2022-08-01T03:02:16;7.87;;;4.80;;
17451;SDS011;8843;48.838;9.324;2022-08-01T03:04:44;8.77;;;5.33;;
17451;SDS011;8843;48.838;9.324;2022-08-01T03:07:13;9.80;;;5.80;;
17451;SDS011;8843;48.838;9.324;2022-08-01T03:09:43;8.57;;;5.40;;
17451;SDS011;8843;48.838;9.324;2022-08-01T03:12:14;7.97;;;5.10;;
17451;SDS011;8843;48.838;9.324;2022-08-01T03:14:44;8.23;;;6.13;;
17451;SDS011;8843;48.838;9.324;2022-08-01T03:17:13;7.23;;;4.80;;
17451;SDS011;8843;48.838;9.324;2022-08-01T03:19:42;7.70;;;5.03;;
17451;SDS011;8843;48.838;9.324;2022-08-01T03:22:11;6.37;;;4.97;;
17451;SDS011;8843;48.838;9.324;2022-08-01T03:24:40;5.13;;;4.30;;
17451;SDS011;8843;48.838;9.324;2022-08-01T03:27:08;4.33;;;3.70;;
17451;SDS011;8843;48.838;9.324;2022-08-01T03:29:37;4.97;;;3.60;;
17451;SDS011;8843;48.838;9.324;2022-08-01T03:32:06;3.80;;;3.13;;
17451;SDS011;8843;48.838;9.324;2022-08-01T03:34:35;4.83;;;3.20;;
17451;SDS011;8843;48.838;9.324;2022-08-01T03:37:03;3.13;;;2.70;;
17451;SDS011;8843;48.838;9.324;2022-08-01T03:39:37;3.90;;;3.50;;
17451;SDS011;8843;48.838;9.324;2022-08-01T03:42:11;3.73;;;2.90;;
17451;SDS011;8843;48.838;9.324;2022-08-01T03:44:43;4.60;;;3.00;;
17451;SDS011;8843;48.838;9.324;2022-08-01T03:47:14;3.70;;;3.40;;
17451;SDS011;8843;48.838;9.324;2022-08-01T03:49:43;5.03;;;3.63;;
17451;SDS011;8843;48.838;9.324;2022-08-01T03:52:12;4.23;;;3.40;;
17451;SDS011;8843;48.838;9.324;2022-08-01T03:54:41;4.53;;;3.30;;
17451;SDS011;8843;48.838;9.324;2022-08-01T03:57:12;4.47;;;3.33;;
17451;SDS011;8843;48.838;9.324;2022-08-01T03:59:40;5.50;;;4.00;;
17451;SDS011;8843;48.838;9.324;2022-08-01T04:02:09;4.40;;;3.10;;
17451;SDS011;8843;48.838;9.324;2022-08-01T04:04:38;5.90;;;4.83;;
17451;SDS011;8843;48.838;9.324;2022-08-01T04:07:19;6.00;;;4.00;;
17451;SDS011;8843;48.838;9.324;2022-08-01T04:09:47;5.73;;;4.13;;
17451;SDS011;8843;48.838;9.324;2022-08-01T04:12:14;5.63;;;4.13;;
17451;SDS011;8843;48.838;9.324;2022-08-01T04:14:43;6.03;;;4.33;;
17451;SDS011;8843;48.838;9.324;2022-08-01T04:17:10;8.40;;;4.47;;
17451;SDS011;8843;48.838;9.324;2022-08-01T04:19:37;5.87;;;4.10;;
17451;SDS011;8843;48.838;9.324;2022-08-01T04:22:04;5.73;;;3.47;;
17451;SDS011;8843;48.838;9.324;2022-08-01T04:24:31;6.27;;;4.40;;
17451;SDS011;8843;48.838;9.324;2022-08-01T04:27:01;6.30;;;3.80;;
17451;SDS011;8843;48.838;9.324;2022-08-01T04:29:30;5.67;;;3.73;;
17451;SDS011;8843;48.838;9.324;2022-08-01T04:32:00;5.43;;;3.43;;
17451;SDS011;8843;48.838;9.324;2022-08-01T04:34:30;6.90;;;4.27;;
17451;SDS011;8843;48.838;9.324;2022-08-01T04:36:58;6.33;;;3.47;;
17451;SDS011;8843;48.838;9.324;2022-08-01T04:39:26;4.47;;;3.40;;
17451;SDS011;8843;48.838;9.324;2022-08-01T04:41:57;4.33;;;2.90;;
17451;SDS011;8843;48.838;9.324;2022-08-01T04:44:28;4.40;;;3.13;;
17451;SDS011;8843;48.838;9.324;2022-08-01T04:46:57;3.03;;;2.80;;
17451;SDS011;8843;48.838;9.324;2022-08-01T04:49:27;4.17;;;3.23;;
17451;SDS011;8843;48.838;9.324;2022-08-01T04:51:55;3.27;;;2.93;;
17451;SDS011;8843;48.838;9.324;2022-08-01T04:54:25;4.10;;;2.97;;
17451;SDS011;8843;48.838;9.324;2022-08-01T04:56:52;4.37;;;3.20;;
17451;SDS011;8843;48.838;9.324;2022-08-01T04:59:20;3.13;;;2.70;;
17451;SDS011;8843;48.838;9.324;2022-08-01T05:02:06;4.43;;;3.27;;
17451;SDS011;8843;48.838;9.324;2022-08-01T05:04:35;6.03;;;3.30;;
17451;SDS011;8843;48.838;9.324;2022-08-01T05:07:03;3.43;;;2.80;;
17451;SDS011;8843;48.838;9.324;2022-08-01T05:09:30;3.60;;;2.73;;
17451;SDS011;8843;48.838;9.324;2022-08-01T05:11:57;3.07;;;2.73;;
17451;SDS011;8843;48.838;9.324;2022-08-01T05:14:24;3.67;;;2.97;;
17451;SDS011;8843;48.838;9.324;2022-08-01T05:16:51;4.87;;;3.13;;
17451;SDS011;8843;48.838;9.324;2022-08-01T05:19:18;3.83;;;3.00;;
17451;SDS011;8843;48.838;9.324;2022-08-01T05:21:47;5.03;;;3.23;;
17451;SDS011;8843;48.838;9.324;2022-08-01T05:24:14;4.37;;;2.77;;
17451;SDS011;8843;48.838;9.324;2022-08-01T05:26:41;4.70;;;2.97;;
17451;SDS011;8843;48.838;9.324;2022-08-01T05:29:08;4.30;;;3.20;;
17451;SDS011;8843;48.838;9.324;2022-08-01T05:31:35;3.20;;;2.90;;
17451;SDS011;8843;48.838;9.324;2022-08-01T05:34:02;3.30;;;2.70;;
17451;SDS011;8843;48.838;9.324;2022-08-01T05:36:29;3.40;;;2.80;;
17451;SDS011;8843;48.838;9.324;2022-08-01T05:38:58;3.27;;;2.63;;
17451;SDS011;8843;48.838;9.324;2022-08-01T05:41:25;3.70;;;2.73;;
17451;SDS011;8843;48.838;9.324;2022-08-01T05:43:52;3.20;;;2.90;;
17451;SDS011;8843;48.838;9.324;2022-08-01T05:46:19;4.67;;;2.60;;
17451;SDS011;8843;48.838;9.324;2022-08-01T05:48:46;3.20;;;2.37;;
17451;SDS011;8843;48.838;9.324;2022-08-01T05:51:13;2.80;;;2.20;;
17451;SDS011;8843;48.838;9.324;2022-08-01T05:53:40;4.67;;;2.60;;
17451;SDS011;8843;48.838;9.324;2022-08-01T05:56:09;5.23;;;2.50;;
17451;SDS011;8843;48.838;9.324;2022-08-01T05:58:36;4.03;;;2.50;;
17451;SDS011;8843;48.838;9.324;2022-08-01T06:01:03;3.17;;;2.57;;
17451;SDS011;8843;48.838;9.324;2022-08-01T06:03:30;2.43;;;2.23;;
17451;SDS011;8843;48.838;9.324;2022-08-01T06:05:58;3.67;;;2.20;;
17451;SDS011;8843;48.838;9.324;2022-08-01T06:08:25;2.23;;;2.03;;
17451;SDS011;8843;48.838;9.324;2022-08-01T06:10:53;3.97;;;2.53;;
17451;SDS011;8843;48.838;9.324;2022-08-01T06:13:22;3.43;;;2.40;;
17451;SDS011;8843;48.838;9.324;2022-08-01T06:15:49;2.50;;;2.30;;
17451;SDS011;8843;48.838;9.324;2022-08-01T06:18:16;2.30;;;2.10;;
17451;SDS011;8843;48.838;9.324;2022-08-01T06:20:43;2.90;;;2.30;;
17451;SDS011;8843;48.838;9.324;2022-08-01T06:23:10;2.83;;;2.10;;
17451;SDS011;8843;48.838;9.324;2022-08-01T06:25:38;1.80;;;1.70;;
17451;SDS011;8843;48.838;9.324;2022-08-01T06:28:05;2.00;;;1.90;;
17451;SDS011;8843;48.838;9.324;2022-08-01T06:30:33;1.63;;;1.53;;
17451;SDS011;8843;48.838;9.324;2022-08-01T06:33:00;4.33;;;1.93;;
17451;SDS011;8843;48.838;9.324;2022-08-01T06:35:28;1.60;;;1.50;;
17451;SDS011;8843;48.838;9.324;2022-08-01T06:37:56;1.60;;;1.37;;
17451;SDS011;8843;48.838;9.324;2022-08-01T06:40:23;1.77;;;1.67;;
17451;SDS011;8843;48.838;9.324;2022-08-01T06:42:50;2.57;;;1.93;;
17451;SDS011;8843;48.838;9.324;2022-08-01T06:45:17;1.70;;;1.60;;
17451;SDS011;8843;48.838;9.324;2022-08-01T06:47:48;1.60;;;1.37;;
17451;SDS011;8843;48.838;9.324;2022-08-01T06:50:15;1.50;;;1.40;;
17451;SDS011;8843;48.838;9.324;2022-08-01T06:52:42;1.97;;;1.70;;
17451;SDS011;8843;48.838;9.324;2022-08-01T06:55:09;3.63;;;1.73;;
17451;SDS011;8843;48.838;9.324;2022-08-01T06:57:36;1.60;;;1.50;;
17451;SDS011;8843;48.838;9.324;2022-08-01T07:00:11;1.63;;;1.50;;
17451;SDS011;8843;48.838;9.324;2022-08-01T07:02:38;1.87;;;1.70;;
17451;SDS011;8843;48.838;9.324;2022-08-01T07:05:08;2.90;;;1.50;;
17451;SDS011;8843;48.838;9.324;2022-08-01T07:07:35;2.23;;;1.50;;
17451;SDS011;8843;48.838;9.324;2022-08-01T07:10:09;4.77;;;1.60;;
17451;SDS011;8843;48.838;9.324;2022-08-01T07:12:44;2.20;;;1.73;;
17451;SDS011;8843;48.838;9.324;2022-08-01T07:15:11;1.87;;;1.50;;
17451;SDS011;8843;48.838;9.324;2022-08-01T07:17:38;1.77;;;1.50;;
17451;SDS011;8843;48.838;9.324;2022-08-01T07:20:08;1.70;;;1.60;;
17451;SDS011;8843;48.838;9.324;2022-08-01T07:22:36;1.50;;;1.40;;
17451;SDS011;8843;48.838;9.324;2022-08-01T07:25:05;1.87;;;1.77;;
17451;SDS011;8843;48.838;9.324;2022-08-01T07:27:33;2.63;;;1.70;;
17451;SDS011;8843;48.838;9.324;2022-08-01T07:30:00;1.93;;;1.70;;
17451;SDS011;8843;48.838;9.324;2022-08-01T07:32:27;4.33;;;1.80;;
17451;SDS011;8843;48.838;9.324;2022-08-01T07:34:55;2.13;;;1.47;;
17451;SDS011;8843;48.838;9.324;2022-08-01T07:37:23;1.83;;;1.73;;
17451;SDS011;8843;48.838;9.324;2022-08-01T07:39:50;2.83;;;1.90;;
17451;SDS011;8843;48.838;9.324;2022-08-01T07:42:17;2.03;;;1.77;;
17451;SDS011;8843;48.838;9.324;2022-08-01T07:44:44;2.77;;;1.80;;
17451;SDS011;8843;48.838;9.324;2022-08-01T07:47:10;1.63;;;1.53;;
17451;SDS011;8843;48.838;9.324;2022-08-01T07:49:37;2.87;;;1.80;;
17451;SDS011;8843;48.838;9.324;2022-08-01T07:52:04;2.17;;;1.77;;
17451;SDS011;8843;48.838;9.324;2022-08-01T07:54:33;2.17;;;1.87;;
17451;SDS011;8843;48.838;9.324;2022-08-01T07:57:00;1.97;;;1.87;;
17451;SDS011;8843;48.838;9.324;2022-08-01T07:59:27;3.33;;;1.40;;
17451;SDS011;8843;48.838;9.324;2022-08-01T08:01:54;2.10;;;1.90;;
17451;SDS011;8843;48.838;9.324;2022-08-01T08:04:21;4.83;;;1.60;;
17451;SDS011;8843;48.838;9.324;2022-08-01T08:06:48;1.83;;;1.60;;
17451;SDS011;8843;48.838;9.324;2022-08-01T08:09:14;2.50;;;1.60;;
17451;SDS011;8843;48.838;9.324;2022-08-01T08:11:43;1.77;;;1.43;;
17451;SDS011;8843;48.838;9.324;2022-08-01T08:14:10;2.40;;;1.70;;
17451;SDS011;8843;48.838;9.324;2022-08-01T08:16:38;1.97;;;1.77;;
17451;SDS011;8843;48.838;9.324;2022-08-01T08:19:05;2.40;;;1.97;;
17451;SDS011;8843;48.838;9.324;2022-08-01T08:21:32;2.57;;;1.90;;
17451;SDS011;8843;48.838;9.324;2022-08-01T08:23:59;2.57;;;1.87;;
17451;SDS011;8843;48.838;9.324;2022-08-01T08:26:44;2.20;;;2.00;;
17451;SDS011;8843;48.838;9.324;2022-08-01T08:29:12;1.67;;;1.53;;
17451;SDS011;8843;48.838;9.324;2022-08-01T08:31:39;3.20;;;1.97;;
17451;SDS011;8843;48.838;9.324;2022-08-01T08:34:06;1.73;;;1.60;;
17451;SDS011;8843;48.838;9.324;2022-08-01T08:36:33;3.90;;;2.13;;
17451;SDS011;8843;48.838;9.324;2022-08-01T08:39:00;1.63;;;1.53;;
17451;SDS011;8843;48.838;9.324;2022-08-01T08:41:28;2.90;;;1.90;;
17451;SDS011;8843;48.838;9.324;2022-08-01T08:43:57;2.37;;;1.73;;
17451;SDS011;8843;48.838;9.324;2022-08-01T08:46:25;1.67;;;1.57;;
17451;SDS011;8843;48.838;9.324;2022-08-01T08:48:53;2.53;;;2.30;;
17451;SDS011;8843;48.838;9.324;2022-08-01T08:51:20;4.10;;;2.53;;
17451;SDS011;8843;48.838;9.324;2022-08-01T08:53:49;2.07;;;1.63;;
17451;SDS011;8843;48.838;9.324;2022-08-01T08:56:19;1.80;;;1.70;;
17451;SDS011;8843;48.838;9.324;2022-08-01T08:58:47;3.17;;;1.83;;
17451;SDS011;8843;48.838;9.324;2022-08-01T09:01:17;3.03;;;1.97;;
17451;SDS011;8843;48.838;9.324;2022-08-01T09:03:45;5.13;;;2.03;;
17451;SDS011;8843;48.838;9.324;2022-08-01T09:06:11;4.07;;;2.00;;
17451;SDS011;8843;48.838;9.324;2022-08-01T09:08:39;1.80;;;1.70;;
17451;SDS011;8843;48.838;9.324;2022-08-01T09:11:06;2.00;;;1.80;;
17451;SDS011;8843;48.838;9.324;2022-08-01T09:13:33;3.03;;;1.87;;
17451;SDS011;8843;48.838;9.324;2022-08-01T09:16:00;2.80;;;1.70;;
17451;SDS011;8843;48.838;9.324;2022-08-01T09:18:29;3.60;;;2.10;;
17451;SDS011;8843;48.838;9.324;2022-08-01T09:21:12;2.10;;;1.83;;
17451;SDS011;8843;48.838;9.324;2022-08-01T09:23:42;5.37;;;2.13;;
17451;SDS011;8843;48.838;9.324;2022-08-01T09:26:12;4.23;;;2.50;;
17451;SDS011;8843;48.838;9.324;2022-08-01T09:28:40;2.13;;;1.90;;
17451;SDS011;8843;48.838;9.324;2022-08-01T09:31:08;2.37;;;1.93;;
17451;SDS011;8843;48.838;9.324;2022-08-01T09:33:48;2.93;;;2.10;;
17451;SDS011;8843;48.838;9.324;2022-08-01T09:36:19;3.20;;;2.10;;
17451;SDS011;8843;48.838;9.324;2022-08-01T09:38:47;2.30;;;2.10;;
17451;SDS011;8843;48.838;9.324;2022-08-01T09:41:15;4.27;;;2.20;;
17451;SDS011;8843;48.838;9.324;2022-08-01T09:43:47;3.47;;;2.13;;
17451;SDS011;8843;48.838;9.324;2022-08-01T09:46:15;2.73;;;2.10;;
17451;SDS011;8843;48.838;9.324;2022-08-01T09:48:55;3.27;;;2.90;;
17451;SDS011;8843;48.838;9.324;2022-08-01T09:51:30;6.27;;;3.47;;
17451;SDS011;8843;48.838;9.324;2022-08-01T09:53:58;3.23;;;2.70;;
17451;SDS011;8843;48.838;9.324;2022-08-01T09:56:25;3.83;;;3.07;;
17451;SDS011;8843;48.838;9.324;2022-08-01T09:59:01;3.10;;;2.80;;
17451;SDS011;8843;48.838;9.324;2022-08-01T10:01:28;3.03;;;2.63;;
17451;SDS011;8843;48.838;9.324;2022-08-01T10:04:10;5.57;;;3.27;;
17451;SDS011;8843;48.838;9.324;2022-08-01T10:06:38;3.07;;;2.87;;
17451;SDS011;8843;48.838;9.324;2022-08-01T10:09:07;3.87;;;2.90;;
17451;SDS011;8843;48.838;9.324;2022-08-01T10:11:36;4.93;;;3.13;;
17451;SDS011;8843;48.838;9.324;2022-08-01T10:14:13;4.40;;;2.97;;
17451;SDS011;8843;48.838;9.324;2022-08-01T10:16:41;4.30;;;2.50;;
17451;SDS011;8843;48.838;9.324;2022-08-01T10:19:10;3.10;;;2.77;;
17451;SDS011;8843;48.838;9.324;2022-08-01T10:21:37;10.03;;;3.13;;
17451;SDS011;8843;48.838;9.324;2022-08-01T10:24:05;3.53;;;3.13;;
17451;SDS011;8843;48.838;9.324;2022-08-01T10:26:35;2.57;;;2.37;;
17451;SDS011;8843;48.838;9.324;2022-08-01T10:29:04;3.37;;;3.07;;
17451;SDS011;8843;48.838;9.324;2022-08-01T10:31:32;2.97;;;2.70;;
17451;SDS011;8843;48.838;9.324;2022-08-01T10:33:59;3.90;;;2.40;;
17451;SDS011;8843;48.838;9.324;2022-08-01T10:36:28;4.73;;;2.77;;
17451;SDS011;8843;48.838;9.324;2022-08-01T10:38:57;5.10;;;2.37;;
17451;SDS011;8843;48.838;9.324;2022-08-01T10:41:25;3.10;;;2.43;;
17451;SDS011;8843;48.838;9.324;2022-08-01T10:43:54;2.03;;;1.93;;
17451;SDS011;8843;48.838;9.324;2022-08-01T10:46:21;2.00;;;1.90;;
17451;SDS011;8843;48.838;9.324;2022-08-01T10:48:49;2.70;;;2.37;;
17451;SDS011;8843;48.838;9.324;2022-08-01T10:51:21;3.17;;;2.70;;
17451;SDS011;8843;48.838;9.324;2022-08-01T10:53:51;2.93;;;2.10;;
17451;SDS011;8843;48.838;9.324;2022-08-01T10:56:20;2.67;;;2.27;;
17451;SDS011;8843;48.838;9.324;2022-08-01T10:58:48;2.60;;;2.40;;
17451;SDS011;8843;48.838;9.324;2022-08-01T11:01:16;2.63;;;2.23;;
17451;SDS011;8843;48.838;9.324;2022-08-01T11:03:58;2.10;;;2.00;;
17451;SDS011;8843;48.838;9.324;2022-08-01T11:06:36;3.87;;;2.70;;
17451;SDS011;8843;48.838;9.324;2022-08-01T11:09:19;2.40;;;2.20;;
17451;SDS011;8843;48.838;9.324;2022-08-01T11:11:58;4.13;;;2.30;;
17451;SDS011;8843;48.838;9.324;2022-08-01T11:14:28;5.20;;;2.43;;
17451;SDS011;8843;48.838;9.324;2022-08-01T11:16:56;2.90;;;2.33;;
17451;SDS011;8843;48.838;9.324;2022-08-01T11:28:36;3.07;;;2.77;;
17451;SDS011;8843;48.838;9.324;2022-08-01T11:33:52;2.87;;;2.20;;
17451;SDS011;8843;48.838;9.324;2022-08-01T11:36:19;2.97;;;2.30;;
17451;SDS011;8843;48.838;9.324;2022-08-01T11:38:47;2.50;;;2.27;;
17451;SDS011;8843;48.838;9.324;2022-08-01T11:41:16;2.83;;;2.30;;
17451;SDS011;8843;48.838;9.324;2022-08-01T11:43:54;3.00;;;2.17;;
17451;SDS011;8843;48.838;9.324;2022-08-01T11:49:31;2.43;;;1.90;;
17451;SDS011;8843;48.838;9.324;2022-08-01T11:52:23;3.97;;;2.40;;
17451;SDS011;8843;48.838;9.324;2022-08-01T11:54:52;2.97;;;2.20;;
17451;SDS011;8843;48.838;9.324;2022-08-01T11:57:22;2.90;;;2.17;;
17451;SDS011;8843;48.838;9.324;2022-08-01T11:59:51;2.10;;;1.90;;
17451;SDS011;8843;48.838;9.324;2022-08-01T12:02:20;2.27;;;2.10;;
17451;SDS011;8843;48.838;9.324;2022-08-01T12:04:53;2.67;;;2.37;;
17451;SDS011;8843;48.838;9.324;2022-08-01T12:07:22;2.60;;;2.40;;
17451;SDS011;8843;48.838;9.324;2022-08-01T12:09:56;2.10;;;2.00;;
17451;SDS011;8843;48.838;9.324;2022-08-01T12:12:27;3.30;;;2.20;;
17451;SDS011;8843;48.838;9.324;2022-08-01T12:14:55;2.30;;;2.10;;
17451;SDS011;8843;48.838;9.324;2022-08-01T12:17:29;4.37;;;2.80;;
17451;SDS011;8843;48.838;9.324;2022-08-01T12:19:59;2.73;;;2.50;;
17451;SDS011;8843;48.838;9.324;2022-08-01T12:22:26;2.00;;;1.90;;
17451;SDS011;8843;48.838;9.324;2022-08-01T12:24:53;2.37;;;1.90;;
17451;SDS011;8843;48.838;9.324;2022-08-01T12:27:23;2.40;;;2.00;;
17451;SDS011;8843;48.838;9.324;2022-08-01T12:29:53;3.63;;;2.30;;
17451;SDS011;8843;48.838;9.324;2022-08-01T12:32:21;3.10;;;2.20;;
17451;SDS011;8843;48.838;9.324;2022-08-01T12:34:50;3.17;;;2.20;;
17451;SDS011;8843;48.838;9.324;2022-08-01T12:37:17;2.10;;;2.00;;
17451;SDS011;8843;48.838;9.324;2022-08-01T12:39:45;2.63;;;2.07;;
17451;SDS011;8843;48.838;9.324;2022-08-01T12:42:12;2.37;;;1.90;;
17451;SDS011;8843;48.838;9.324;2022-08-01T12:44:42;1.93;;;1.73;;
17451;SDS011;8843;48.838;9.324;2022-08-01T12:47:13;1.90;;;1.73;;
17451;SDS011;8843;48.838;9.324;2022-08-01T12:49:42;2.43;;;2.23;;
17451;SDS011;8843;48.838;9.324;2022-08-01T12:52:10;2.60;;;2.30;;
17451;SDS011;8843;48.838;9.324;2022-08-01T12:57:27;2.70;;;1.93;;
17451;SDS011;8843;48.838;9.324;2022-08-01T13:00:09;1.80;;;1.70;;
17451;SDS011;8843;48.838;9.324;2022-08-01T13:02:42;2.17;;;1.80;;
17451;SDS011;8843;48.838;9.324;2022-08-01T13:05:10;2.67;;;2.43;;
17451;SDS011;8843;48.838;9.324;2022-08-01T13:07:42;2.13;;;1.80;;
17451;SDS011;8843;48.838;9.324;2022-08-01T13:10:12;2.47;;;2.27;;
17451;SDS011;8843;48.838;9.324;2022-08-01T13:12:40;2.17;;;1.90;;
17451;SDS011;8843;48.838;9.324;2022-08-01T13:15:18;3.90;;;2.00;;
17451;SDS011;8843;48.838;9.324;2022-08-01T13:17:57;1.90;;;1.70;;
17451;SDS011;8843;48.838;9.324;2022-08-01T13:20:29;4.40;;;2.37;;
17451;SDS011;8843;48.838;9.324;2022-08-01T13:23:10;2.00;;;1.90;;
17451;SDS011;8843;48.838;9.324;2022-08-01T13:25:48;2.00;;;1.90;;
17451;SDS011;8843;48.838;9.324;2022-08-01T13:28:17;1.90;;;1.80;;
17451;SDS011;8843;48.838;9.324;2022-08-01T13:30:55;2.07;;;1.90;;
17451;SDS011;8843;48.838;9.324;2022-08-01T13:33:26;1.80;;;1.67;;
17451;SDS011;8843;48.838;9.324;2022-08-01T13:36:06;2.17;;;1.97;;
17451;SDS011;8843;48.838;9.324;2022-08-01T13:38:33;1.87;;;1.77;;
17451;SDS011;8843;48.838;9.324;2022-08-01T13:41:17;2.17;;;1.60;;
17451;SDS011;8843;48.838;9.324;2022-08-01T13:43:44;2.27;;;2.03;;
17451;SDS011;8843;48.838;9.324;2022-08-01T13:46:11;2.17;;;1.90;;
17451;SDS011;8843;48.838;9.324;2022-08-01T13:48:39;2.07;;;1.90;;
17451;SDS011;8843;48.838;9.324;2022-08-01T13:51:06;2.17;;;1.97;;
17451;SDS011;8843;48.838;9.324;2022-08-01T13:53:33;2.13;;;1.80;;
17451;SDS011;8843;48.838;9.324;2022-08-01T13:56:00;2.00;;;1.90;;
17451;SDS011;8843;48.838;9.324;2022-08-01T13:58:27;1.63;;;1.50;;
17451;SDS011;8843;48.838;9.324;2022-08-01T14:00:54;2.33;;;2.00;;
17451;SDS011;8843;48.838;9.324;2022-08-01T14:03:22;1.63;;;1.53;;
17451;SDS011;8843;48.838;9.324;2022-08-01T14:05:50;2.00;;;1.77;;
17451;SDS011;8843;48.838;9.324;2022-08-01T14:08:17;4.43;;;2.10;;
17451;SDS011;8843;48.838;9.324;2022-08-01T14:10:44;2.07;;;1.50;;
17451;SDS011;8843;48.838;9.324;2022-08-01T14:13:11;1.73;;;1.63;;
17451;SDS011;8843;48.838;9.324;2022-08-01T14:15:39;2.10;;;1.60;;
17451;SDS011;8843;48.838;9.324;2022-08-01T14:18:06;1.73;;;1.63;;
17451;SDS011;8843;48.838;9.324;2022-08-01T14:20:34;2.00;;;1.90;;
17451;SDS011;8843;48.838;9.324;2022-08-01T14:23:03;4.77;;;2.20;;
17451;SDS011;8843;48.838;9.324;2022-08-01T14:25:30;1.73;;;1.63;;
17451;SDS011;8843;48.838;9.324;2022-08-01T14:27:57;1.93;;;1.77;;
17451;SDS011;8843;48.838;9.324;2022-08-01T14:30:23;2.00;;;1.90;;
17451;SDS011;8843;48.838;9.324;2022-08-01T14:32:50;6.13;;;1.80;;
17451;SDS011;8843;48.838;9.324;2022-08-01T14:35:17;2.73;;;2.07;;
17451;SDS011;8843;48.838;9.324;2022-08-01T14:37:44;2.60;;;1.77;;
17451;SDS011;8843;48.838;9.324;2022-08-01T14:40:12;1.70;;;1.60;;
17451;SDS011;8843;48.838;9.324;2022-08-01T14:42:39;1.60;;;1.50;;
17451;SDS011;8843;48.838;9.324;2022-08-01T14:45:08;5.43;;;1.77;;
17451;SDS011;8843;48.838;9.324;2022-08-01T14:47:36;1.80;;;1.70;;
17451;SDS011;8843;48.838;9.324;2022-08-01T14:50:05;1.87;;;1.67;;
17451;SDS011;8843;48.838;9.324;2022-08-01T14:52:34;1.83;;;1.57;;
17451;SDS011;8843;48.838;9.324;2022-08-01T14:55:02;2.30;;;2.10;;
17451;SDS011;8843;48.838;9.324;2022-08-01T14:57:31;2.63;;;2.00;;
17451;SDS011;8843;48.838;9.324;2022-08-01T14:59:58;2.47;;;2.07;;
17451;SDS011;8843;48.838;9.324;2022-08-01T15:02:25;1.80;;;1.70;;
17451;SDS011;8843;48.838;9.324;2022-08-01T15:04:52;2.60;;;1.60;;
17451;SDS011;8843;48.838;9.324;2022-08-01T15:07:19;2.53;;;1.80;;
17451;SDS011;8843;48.838;9.324;2022-08-01T15:09:46;3.17;;;1.70;;
17451;SDS011;8843;48.838;9.324;2022-08-01T15:12:13;1.90;;;1.80;;
17451;SDS011;8843;48.838;9.324;2022-08-01T15:14:41;2.07;;;1.97;;
17451;SDS011;8843;48.838;9.324;2022-08-01T15:17:14;4.23;;;1.90;;
17451;SDS011;8843;48.838;9.324;2022-08-01T15:19:41;3.67;;;2.20;;
17451;SDS011;8843;48.838;9.324;2022-08-01T15:22:08;2.30;;;2.10;;
17451;SDS011;8843;48.838;9.324;2022-08-01T15:24:36;2.93;;;2.10;;
17451;SDS011;8843;48.838;9.324;2022-08-01T15:27:03;2.10;;;1.67;;
17451;SDS011;8843;48.838;9.324;2022-08-01T15:29:30;2.13;;;1.70;;
17451;SDS011;8843;48.838;9.324;2022-08-01T15:31:59;1.87;;;1.77;;
17451;SDS011;8843;48.838;9.324;2022-08-01T15:34:26;1.90;;;1.80;;